Schedule Details

Flight Number: SQS1050
Departure: Mopah International (WAKK) at 09:00
Arrival: Kerema (AYKM) at 11:00

$depweather=Schedulesdata::GetWeather($schedule->depicao); $arrweather=Schedulesdata::GetWeather($schedule->arricao); $depsun=" Sunrise: ".date_sunrise(time(),SUNFUNCS_RET_STRING,$schedule->deplat,$schedule->deplng,90,0)." Sunset: ".date_sunset(time(),SUNFUNCS_RET_STRING,$schedule->deplat,$schedule->deplng,90,0)." (UTC)"; $arrsun=" Sunrise: ".date_sunrise(time(),SUNFUNCS_RET_STRING,$schedule->arrlat,$schedule->arrlng,90,0)." Sunset: ".date_sunset(time(),SUNFUNCS_RET_STRING,$schedule->arrlat,$schedule->arrlng,90,0)." (UTC)"; Weather Information
Current METAR information for WAKK : WAKK 180500Z 11010KT 8000 FEW016 BKN018 29/21 Q1009 NOSIG
Current METAR information for AYKM :

Schedule Frequency




TAF:

Route Map